createdAt,value
2017-10-06T16:07:42.824Z,7.90
2017-10-06T16:10:10.904Z,6.27
2017-10-06T16:12:38.555Z,5.30
2017-10-06T16:15:09.838Z,6.43
2017-10-06T16:17:37.764Z,8.60
2017-10-06T16:20:06.535Z,7.20
2017-10-06T16:22:34.597Z,5.93
2017-10-06T16:25:02.200Z,7.57
2017-10-06T16:27:29.682Z,5.10
2017-10-06T16:29:57.232Z,6.47
2017-10-06T16:32:24.719Z,5.07
2017-10-06T16:34:52.945Z,10.60
2017-10-06T16:37:20.419Z,7.60
2017-10-06T16:39:47.934Z,5.03
2017-10-06T16:42:15.407Z,5.80
2017-10-06T16:44:42.901Z,7.37
2017-10-06T16:47:10.410Z,6.67
2017-10-06T16:49:37.896Z,12.00
2017-10-06T16:52:05.418Z,7.97
2017-10-06T16:54:32.895Z,13.73
2017-10-06T16:57:00.397Z,9.33
2017-10-06T16:59:28.008Z,8.17
2017-10-06T17:01:55.671Z,8.53
2017-10-06T17:04:23.255Z,6.20
2017-10-06T17:06:50.745Z,6.77
2017-10-06T17:09:19.367Z,5.60
2017-10-06T17:11:47.105Z,7.63
2017-10-06T17:14:14.622Z,9.47
2017-10-06T17:16:42.217Z,10.10
2017-10-06T17:19:09.860Z,9.40
2017-10-06T17:21:37.788Z,8.23
2017-10-06T17:24:05.332Z,9.17
2017-10-06T17:26:32.861Z,8.10
2017-10-06T17:29:00.813Z,7.67
2017-10-06T17:31:28.559Z,9.67
2017-10-06T17:33:56.346Z,11.10
2017-10-06T17:36:24.291Z,12.50
2017-10-06T17:38:51.887Z,5.90
2017-10-06T17:41:19.552Z,10.23
2017-10-06T17:43:47.139Z,8.90
2017-10-06T17:46:15.053Z,10.03
2017-10-06T17:48:42.780Z,11.17
2017-10-06T17:51:10.319Z,11.30
2017-10-06T17:53:38.225Z,8.63
2017-10-06T17:56:05.728Z,6.17
2017-10-06T17:58:33.351Z,6.60
2017-10-06T18:01:01.158Z,6.27
2017-10-06T18:03:28.756Z,6.63
2017-10-06T18:05:57.040Z,7.73
2017-10-06T18:08:25.427Z,7.73
2017-10-06T18:10:54.010Z,10.17
2017-10-06T18:13:22.117Z,7.83
2017-10-06T18:15:49.725Z,7.00
2017-10-06T18:18:17.312Z,6.73
2017-10-06T18:20:44.934Z,9.00
2017-10-06T18:23:13.407Z,5.77
2017-10-06T18:25:41.551Z,9.60
2017-10-06T18:28:09.277Z,7.50
2017-10-06T18:30:36.798Z,7.43
2017-10-06T18:33:04.323Z,6.67
2017-10-06T18:35:31.794Z,8.53
2017-10-06T18:37:59.327Z,6.23
2017-10-06T18:40:26.837Z,10.47
2017-10-06T18:42:54.672Z,9.17
2017-10-06T18:45:22.709Z,15.13
2017-10-06T18:47:50.204Z,14.40
2017-10-06T18:50:17.738Z,13.90
2017-10-06T18:52:45.324Z,16.63
2017-10-06T18:55:12.859Z,14.40
2017-10-06T18:57:40.393Z,16.40
2017-10-06T19:00:08.167Z,16.57
2017-10-06T19:02:35.862Z,10.90
2017-10-06T19:05:03.360Z,6.63
2017-10-06T19:07:30.895Z,9.23
2017-10-06T19:09:58.795Z,6.27
2017-10-06T19:12:26.311Z,8.07
2017-10-06T19:14:53.902Z,11.00
2017-10-06T19:17:21.906Z,6.50
2017-10-06T19:19:49.764Z,6.60
2017-10-06T19:22:17.370Z,5.90
2017-10-06T19:24:45.782Z,7.90
2017-10-06T19:27:13.380Z,5.30
2017-10-06T19:29:41.116Z,5.83
2017-10-06T19:32:08.761Z,4.87
2017-10-06T19:34:36.262Z,6.03
2017-10-06T19:37:03.808Z,4.80
2017-10-06T19:39:31.301Z,4.70
2017-10-06T19:41:59.139Z,6.60
2017-10-06T19:44:26.837Z,7.97
2017-10-06T19:46:54.394Z,5.20
2017-10-06T19:49:22.035Z,6.30
2017-10-06T19:51:49.778Z,5.13
2017-10-06T19:54:17.630Z,7.67
2017-10-06T19:56:46.491Z,4.30
2017-10-06T19:59:14.424Z,4.50
2017-10-06T20:01:47.308Z,7.07
2017-10-06T20:04:15.162Z,7.83
2017-10-06T20:06:43.387Z,5.93
2017-10-06T20:09:11.691Z,4.97
2017-10-06T20:11:39.388Z,6.10
2017-10-06T20:14:06.998Z,4.97
2017-10-06T20:16:34.567Z,4.50
2017-10-06T20:19:02.123Z,6.37
2017-10-06T20:21:29.696Z,5.40
2017-10-06T20:23:57.194Z,5.10
2017-10-06T20:26:24.781Z,6.37
2017-10-06T20:28:53.281Z,6.03
2017-10-06T20:31:24.160Z,7.80
2017-10-06T20:33:57.528Z,6.60
2017-10-06T20:36:26.984Z,6.20
2017-10-06T20:38:54.533Z,5.13
2017-10-06T20:41:22.775Z,5.17
2017-10-06T20:43:50.452Z,8.40
2017-10-06T20:46:18.023Z,6.80
2017-10-06T20:48:46.836Z,5.90
2017-10-06T20:51:14.401Z,5.17
2017-10-06T20:53:41.961Z,6.93
2017-10-06T20:56:13.096Z,4.40
2017-10-06T20:58:40.678Z,8.00
2017-10-06T21:01:08.347Z,7.57
2017-10-06T21:03:35.911Z,9.90
2017-10-06T21:06:03.581Z,5.90
2017-10-06T21:08:32.158Z,5.90
2017-10-06T21:10:59.717Z,5.17
2017-10-06T21:13:27.294Z,6.10
2017-10-06T21:15:54.887Z,7.93
2017-10-06T21:18:22.454Z,4.37
2017-10-06T21:20:50.907Z,5.40
2017-10-06T21:23:18.446Z,9.07
2017-10-06T21:25:46.119Z,6.73
2017-10-06T21:28:13.748Z,5.33
2017-10-06T21:30:41.374Z,4.60
2017-10-06T21:33:10.613Z,5.73
2017-10-06T21:35:38.266Z,6.77
2017-10-06T21:38:06.610Z,4.80
2017-10-06T21:40:34.196Z,4.83
2017-10-06T21:43:01.823Z,6.13
2017-10-06T21:45:29.579Z,3.93
2017-10-06T21:47:57.255Z,7.10
2017-10-06T21:50:24.796Z,4.83
2017-10-06T21:52:52.409Z,7.70
2017-10-06T21:55:20.027Z,6.47
2017-10-06T21:57:47.632Z,4.73
2017-10-06T22:00:15.345Z,4.40
2017-10-06T22:02:42.881Z,4.13
2017-10-06T22:05:10.606Z,8.67
2017-10-06T22:07:39.199Z,4.80
2017-10-06T22:10:06.899Z,5.73
2017-10-06T22:12:34.451Z,4.87
2017-10-06T22:15:01.988Z,5.33
2017-10-06T22:17:29.602Z,7.27
2017-10-06T22:19:58.372Z,5.97
2017-10-06T22:22:25.919Z,6.57
2017-10-06T22:24:53.841Z,3.47
2017-10-06T22:27:21.490Z,3.93
2017-10-06T22:29:49.047Z,4.63
2017-10-06T22:32:17.745Z,5.47
2017-10-06T22:34:45.378Z,5.07
2017-10-06T22:37:13.743Z,5.30
2017-10-06T22:39:41.314Z,6.67
2017-10-06T22:42:08.974Z,7.40
2017-10-06T22:44:37.728Z,4.30
2017-10-06T22:47:06.300Z,5.60
2017-10-06T22:49:34.473Z,10.27
2017-10-06T22:52:02.665Z,7.70
2017-10-06T22:54:30.365Z,26.73
2017-10-06T22:57:00.427Z,62.00
2017-10-06T22:59:28.073Z,54.33
2017-10-06T23:01:55.608Z,48.87
2017-10-06T23:04:23.209Z,29.57
2017-10-06T23:06:51.964Z,23.53
2017-10-06T23:09:20.213Z,17.57
2017-10-06T23:11:49.529Z,15.73
2017-10-06T23:14:17.910Z,17.27
2017-10-06T23:16:46.500Z,10.83
2017-10-06T23:19:14.100Z,13.67
2017-10-06T23:21:41.726Z,9.00
2017-10-06T23:24:10.267Z,7.50
2017-10-06T23:26:38.038Z,9.10
2017-10-06T23:29:06.566Z,5.60
2017-10-06T23:31:34.109Z,4.20
2017-10-06T23:34:01.709Z,7.37
2017-10-06T23:36:29.283Z,5.43
2017-10-06T23:38:56.883Z,6.27
2017-10-06T23:41:24.493Z,6.93
2017-10-06T23:43:52.105Z,9.23
2017-10-06T23:46:21.504Z,5.00
2017-10-06T23:48:50.197Z,7.80
2017-10-06T23:51:18.467Z,8.73
2017-10-06T23:53:46.009Z,4.77
2017-10-06T23:56:13.556Z,6.77
2017-10-06T23:58:41.934Z,5.67
